Villa Rio Canas, Puerto Rico
Current Conditions -  °F | °C
As of 2:56 PM on Friday 24 Oct 2014 (Local Time) from TJSJ Reporting Station
Scattered Clouds Scattered Clouds  
Wind Chill: 91°   Ceiling: Unl
Heat Index: 100°   Visibility: 10mi
Dew Point: 74°   Wind: 10mph
Humidity: 57%   Direction: 130°SE
Pressure: 29.86"   Gusts: 18mph
Location:  18.0073°N, 66.5912°W
Report Text: TJSJ 241856Z 13009G16KT 10SM FEW036 SCT043 SCT080 33/23 A2986 RMK AO2 SLP112 T03280233
Loading
Personal Weather Stations






























Interactive Weather Map New forecast layout! Learn more

10-Day Weather Forecast

Advertisements
Track Severe Weather on mobile